createdAt,value
2018-06-15T00:00:11.699Z,1019.68
2018-06-15T00:01:11.747Z,1019.66
2018-06-15T00:02:11.756Z,1019.64
2018-06-15T00:03:11.838Z,1019.67
2018-06-15T00:04:11.634Z,1019.68
2018-06-15T00:05:11.675Z,1019.64
2018-06-15T00:06:11.791Z,1019.64
2018-06-15T00:07:11.855Z,1019.65
2018-06-15T00:08:11.676Z,1019.66
2018-06-15T00:09:11.827Z,1019.71
2018-06-15T00:10:11.873Z,1019.68
2018-06-15T00:11:11.742Z,1019.69
2018-06-15T00:12:11.691Z,1019.7
2018-06-15T00:13:11.733Z,1019.69
2018-06-15T00:14:11.633Z,1019.69
2018-06-15T00:15:11.814Z,1019.67
2018-06-15T00:16:11.713Z,1019.7
2018-06-15T00:17:11.666Z,1019.7
2018-06-15T00:18:11.731Z,1019.73
2018-06-15T00:19:11.837Z,1019.72
2018-06-15T00:20:11.793Z,1019.76
2018-06-15T00:21:11.716Z,1019.75
2018-06-15T00:22:11.855Z,1019.75
2018-06-15T00:23:11.830Z,1019.76
2018-06-15T00:24:11.873Z,1019.78
2018-06-15T00:25:11.754Z,1019.77
2018-06-15T00:26:11.877Z,1019.78
2018-06-15T00:27:11.720Z,1019.8
2018-06-15T00:28:11.997Z,1019.8
2018-06-15T00:29:12.036Z,1019.79
2018-06-15T00:30:11.720Z,1019.78
2018-06-15T00:31:11.847Z,1019.8
2018-06-15T00:32:11.767Z,1019.78
2018-06-15T00:33:11.822Z,1019.79
2018-06-15T00:34:11.828Z,1019.81
2018-06-15T00:35:11.802Z,1019.76
2018-06-15T00:36:11.729Z,1019.76
2018-06-15T00:37:11.783Z,1019.77
2018-06-15T00:38:11.680Z,1019.76
2018-06-15T00:39:11.694Z,1019.74
2018-06-15T00:40:11.842Z,1019.76
2018-06-15T00:41:11.661Z,1019.75
2018-06-15T00:42:11.807Z,1019.74
2018-06-15T00:43:11.755Z,1019.72
2018-06-15T00:44:11.753Z,1019.68
2018-06-15T00:45:11.922Z,1019.66
2018-06-15T00:46:11.640Z,1019.64
2018-06-15T00:47:11.671Z,1019.65
2018-06-15T00:48:11.778Z,1019.61
2018-06-15T00:49:11.655Z,1019.64
2018-06-15T00:50:11.524Z,1019.62
2018-06-15T00:51:11.916Z,1019.63
2018-06-15T00:52:11.668Z,1019.63
2018-06-15T00:53:11.784Z,1019.58
2018-06-15T00:54:11.836Z,1019.58
2018-06-15T00:55:11.863Z,1019.55
2018-06-15T00:56:12.084Z,1019.52
2018-06-15T00:57:11.843Z,1019.51
2018-06-15T00:58:11.963Z,1019.49
2018-06-15T00:59:11.660Z,1019.44
2018-06-15T01:00:11.761Z,1019.47
2018-06-15T01:01:11.791Z,1019.49
2018-06-15T01:02:11.783Z,1019.45
2018-06-15T01:03:11.819Z,1019.47
2018-06-15T01:04:11.714Z,1019.45
2018-06-15T01:05:11.734Z,1019.44
2018-06-15T01:06:11.677Z,1019.41
2018-06-15T01:07:11.657Z,1019.39
2018-06-15T01:08:11.615Z,1019.41
2018-06-15T01:09:11.645Z,1019.42
2018-06-15T01:10:11.767Z,1019.43
2018-06-15T01:11:11.770Z,1019.44
2018-06-15T01:12:11.669Z,1019.39
2018-06-15T01:13:11.773Z,1019.42
2018-06-15T01:14:11.831Z,1019.43
2018-06-15T01:15:11.789Z,1019.42
2018-06-15T01:16:11.767Z,1019.4
2018-06-15T01:17:11.615Z,1019.42
2018-06-15T01:18:11.672Z,1019.46
2018-06-15T01:19:11.591Z,1019.42
2018-06-15T01:20:11.710Z,1019.43
2018-06-15T01:21:11.647Z,1019.41
2018-06-15T01:22:11.740Z,1019.39
2018-06-15T01:23:11.943Z,1019.37
2018-06-15T01:24:11.751Z,1019.39
2018-06-15T01:25:11.794Z,1019.35
2018-06-15T01:26:11.750Z,1019.34
2018-06-15T01:27:11.892Z,1019.37
2018-06-15T01:28:11.976Z,1019.33
2018-06-15T01:29:11.815Z,1019.35
2018-06-15T01:30:11.911Z,1019.34
2018-06-15T01:31:11.662Z,1019.34
2018-06-15T01:32:11.815Z,1019.3
2018-06-15T01:33:11.699Z,1019.36
2018-06-15T01:34:11.799Z,1019.34
2018-06-15T01:35:11.727Z,1019.36
2018-06-15T01:36:11.739Z,1019.39
2018-06-15T01:37:11.805Z,1019.39
2018-06-15T01:38:11.783Z,1019.38
2018-06-15T01:39:11.864Z,1019.4
2018-06-15T01:40:11.704Z,1019.4
2018-06-15T01:41:11.709Z,1019.37
2018-06-15T01:42:11.636Z,1019.38
2018-06-15T01:43:11.837Z,1019.4
2018-06-15T01:44:11.595Z,1019.39
2018-06-15T01:45:11.670Z,1019.41
2018-06-15T01:46:11.794Z,1019.31
2018-06-15T01:47:11.794Z,1019.34
2018-06-15T01:48:11.822Z,1019.36
2018-06-15T01:49:11.853Z,1019.29
2018-06-15T01:50:11.697Z,1019.29
2018-06-15T01:51:11.813Z,1019.29
2018-06-15T01:52:11.666Z,1019.27
2018-06-15T01:53:11.665Z,1019.26
2018-06-15T01:54:11.736Z,1019.24
2018-06-15T01:55:11.757Z,1019.23
2018-06-15T01:56:11.733Z,1019.2
2018-06-15T01:57:12.095Z,1019.17
2018-06-15T01:58:11.975Z,1019.18
2018-06-15T01:59:11.769Z,1019.17
2018-06-15T02:00:11.892Z,1019.18
2018-06-15T02:01:11.905Z,1019.2
2018-06-15T02:02:11.589Z,1019.18
2018-06-15T02:03:11.739Z,1019.21
2018-06-15T02:04:11.735Z,1019.22
2018-06-15T02:05:11.828Z,1019.19
2018-06-15T02:06:11.792Z,1019.21
2018-06-15T02:07:11.688Z,1019.2
2018-06-15T02:08:11.721Z,1019.24
2018-06-15T02:09:11.774Z,1019.27
2018-06-15T02:10:11.740Z,1019.27
2018-06-15T02:11:11.594Z,1019.26
2018-06-15T02:12:11.879Z,1019.27
2018-06-15T02:13:11.760Z,1019.25
2018-06-15T02:14:11.809Z,1019.23
2018-06-15T02:15:11.739Z,1019.26
2018-06-15T02:16:11.754Z,1019.22
2018-06-15T02:17:11.624Z,1019.23
2018-06-15T02:18:11.630Z,1019.23
2018-06-15T02:19:11.796Z,1019.21
2018-06-15T02:20:11.607Z,1019.25
2018-06-15T02:21:11.793Z,1019.23
2018-06-15T02:22:11.700Z,1019.25
2018-06-15T02:23:11.752Z,1019.26
2018-06-15T02:24:11.706Z,1019.22
2018-06-15T02:25:11.618Z,1019.18
2018-06-15T02:26:11.818Z,1019.21
2018-06-15T02:27:11.831Z,1019.19
2018-06-15T02:28:11.668Z,1019.22
2018-06-15T02:29:11.583Z,1019.16
2018-06-15T02:30:11.867Z,1019.21
2018-06-15T02:31:11.789Z,1019.2
2018-06-15T02:32:11.881Z,1019.2
2018-06-15T02:33:11.681Z,1019.21
2018-06-15T02:34:11.753Z,1019.2
2018-06-15T02:35:11.649Z,1019.23
2018-06-15T02:36:11.615Z,1019.22
2018-06-15T02:37:11.693Z,1019.28
2018-06-15T02:38:11.599Z,1019.24
2018-06-15T02:39:11.666Z,1019.22
2018-06-15T02:40:11.629Z,1019.22
2018-06-15T02:41:11.699Z,1019.24
2018-06-15T02:42:11.703Z,1019.21
2018-06-15T02:43:11.679Z,1019.22
2018-06-15T02:44:11.761Z,1019.22
2018-06-15T02:45:11.925Z,1019.25
2018-06-15T02:46:11.719Z,1019.21
2018-06-15T02:47:11.691Z,1019.22
2018-06-15T02:48:11.818Z,1019.26
2018-06-15T02:49:11.784Z,1019.27
2018-06-15T02:50:11.708Z,1019.31
2018-06-15T02:51:11.713Z,1019.3
2018-06-15T02:52:11.755Z,1019.32
2018-06-15T02:53:11.751Z,1019.34
2018-06-15T02:54:11.773Z,1019.38
2018-06-15T02:55:11.747Z,1019.38
2018-06-15T02:56:11.628Z,1019.38
2018-06-15T02:57:11.725Z,1019.37
2018-06-15T02:58:11.719Z,1019.38
2018-06-15T02:59:11.637Z,1019.4
2018-06-15T03:00:11.710Z,1019.4
2018-06-15T03:01:11.695Z,1019.4
2018-06-15T03:02:11.689Z,1019.39
2018-06-15T03:03:11.710Z,1019.42
2018-06-15T03:04:11.808Z,1019.44
2018-06-15T03:05:11.599Z,1019.47
2018-06-15T03:06:11.792Z,1019.48
2018-06-15T03:07:11.820Z,1019.51
2018-06-15T03:08:11.670Z,1019.46
2018-06-15T03:09:11.801Z,1019.51
2018-06-15T03:10:11.807Z,1019.54
2018-06-15T03:11:11.701Z,1019.52
2018-06-15T03:12:11.778Z,1019.56
2018-06-15T03:13:11.916Z,1019.52
2018-06-15T03:14:11.661Z,1019.53
2018-06-15T03:15:11.590Z,1019.51
2018-06-15T03:16:11.726Z,1019.51
2018-06-15T03:17:11.752Z,1019.53
2018-06-15T03:18:11.812Z,1019.55
2018-06-15T03:19:11.835Z,1019.56
2018-06-15T03:20:11.620Z,1019.55
2018-06-15T03:21:11.647Z,1019.53
2018-06-15T03:22:11.692Z,1019.53
2018-06-15T03:23:11.543Z,1019.55
2018-06-15T03:24:11.876Z,1019.54
2018-06-15T03:25:11.909Z,1019.57
2018-06-15T03:26:11.849Z,1019.54
2018-06-15T03:27:11.653Z,1019.56
2018-06-15T03:28:11.569Z,1019.58
2018-06-15T03:29:11.598Z,1019.58
2018-06-15T03:30:11.713Z,1019.59
2018-06-15T03:31:11.788Z,1019.61
2018-06-15T03:32:11.581Z,1019.6
2018-06-15T03:33:11.750Z,1019.58
2018-06-15T03:34:11.601Z,1019.59
2018-06-15T03:35:11.731Z,1019.53
2018-06-15T03:36:11.811Z,1019.56
2018-06-15T03:37:11.845Z,1019.6
2018-06-15T03:38:11.648Z,1019.55
2018-06-15T03:39:11.565Z,1019.56
2018-06-15T03:40:11.822Z,1019.57
2018-06-15T03:41:11.529Z,1019.54
2018-06-15T03:42:11.902Z,1019.56
2018-06-15T03:43:12.034Z,1019.57
2018-06-15T03:44:11.979Z,1019.59
2018-06-15T03:45:11.916Z,1019.59
2018-06-15T03:46:11.771Z,1019.55
2018-06-15T03:47:11.865Z,1019.57
2018-06-15T03:48:11.815Z,1019.56
2018-06-15T03:49:11.616Z,1019.58
2018-06-15T03:50:11.736Z,1019.59
2018-06-15T03:51:11.750Z,1019.59
2018-06-15T03:52:21.664Z,1019.58
2018-06-15T03:53:11.923Z,1019.59
2018-06-15T03:54:11.817Z,1019.61
2018-06-15T03:55:11.935Z,1019.61
2018-06-15T03:56:11.744Z,1019.63
2018-06-15T03:57:11.926Z,1019.61
2018-06-15T03:58:11.680Z,1019.6
2018-06-15T03:59:11.843Z,1019.61
2018-06-15T04:00:11.814Z,1019.63
2018-06-15T04:01:11.632Z,1019.64
2018-06-15T04:02:11.797Z,1019.64
2018-06-15T04:03:11.724Z,1019.63
2018-06-15T04:04:11.758Z,1019.61
2018-06-15T04:05:11.679Z,1019.61
2018-06-15T04:06:11.542Z,1019.57
2018-06-15T04:07:11.736Z,1019.56
2018-06-15T04:08:11.942Z,1019.59
2018-06-15T04:09:11.791Z,1019.56
2018-06-15T04:10:11.937Z,1019.56
2018-06-15T04:11:11.727Z,1019.54
2018-06-15T04:12:11.648Z,1019.56
2018-06-15T04:13:11.824Z,1019.53
2018-06-15T04:14:11.818Z,1019.53
2018-06-15T04:15:11.812Z,1019.5
2018-06-15T04:16:11.755Z,1019.52
2018-06-15T04:17:11.914Z,1019.52
2018-06-15T04:18:11.871Z,1019.54
2018-06-15T04:19:11.797Z,1019.51
2018-06-15T04:20:11.747Z,1019.53
2018-06-15T04:21:11.816Z,1019.53
2018-06-15T04:22:11.729Z,1019.55
2018-06-15T04:23:11.847Z,1019.58
2018-06-15T04:24:11.770Z,1019.54
2018-06-15T04:25:11.862Z,1019.52
2018-06-15T04:26:11.817Z,1019.55
2018-06-15T04:27:11.715Z,1019.57
2018-06-15T04:28:11.631Z,1019.51
2018-06-15T04:29:11.942Z,1019.54
2018-06-15T04:30:11.614Z,1019.53
2018-06-15T04:31:12.018Z,1019.54
2018-06-15T04:32:11.840Z,1019.53
2018-06-15T04:33:21.604Z,1019.48
2018-06-15T04:34:11.730Z,1019.5
2018-06-15T04:35:11.740Z,1019.51
2018-06-15T04:36:11.637Z,1019.5
2018-06-15T04:37:11.784Z,1019.53
2018-06-15T04:38:11.804Z,1019.51
2018-06-15T04:39:11.738Z,1019.53
2018-06-15T04:40:11.725Z,1019.54
2018-06-15T04:41:11.645Z,1019.59
2018-06-15T04:42:12.119Z,1019.6
2018-06-15T04:43:11.547Z,1019.57
2018-06-15T04:44:11.817Z,1019.57
2018-06-15T04:45:11.783Z,1019.53
2018-06-15T04:46:11.719Z,1019.59
2018-06-15T04:47:11.725Z,1019.57
2018-06-15T04:48:11.665Z,1019.51
2018-06-15T04:49:11.714Z,1019.59
2018-06-15T04:50:11.908Z,1019.56
2018-06-15T04:51:11.752Z,1019.59
2018-06-15T04:52:11.781Z,1019.6
2018-06-15T04:53:11.624Z,1019.59
2018-06-15T04:54:11.696Z,1019.56
2018-06-15T04:55:11.778Z,1019.55
2018-06-15T04:56:11.953Z,1019.57
2018-06-15T04:57:11.598Z,1019.62
2018-06-15T04:58:42.794Z,1019.57
2018-06-15T04:59:11.734Z,1019.61
2018-06-15T05:00:11.684Z,1019.58
2018-06-15T05:01:11.632Z,1019.56
2018-06-15T05:02:11.560Z,1019.55
2018-06-15T05:03:12.184Z,1019.55
2018-06-15T05:04:11.601Z,1019.53
2018-06-15T05:05:11.660Z,1019.52
2018-06-15T05:06:11.776Z,1019.48
2018-06-15T05:07:11.779Z,1019.48
2018-06-15T05:08:11.675Z,1019.49
2018-06-15T05:09:11.666Z,1019.47
2018-06-15T05:10:11.777Z,1019.48
2018-06-15T05:11:11.648Z,1019.48
2018-06-15T05:12:11.999Z,1019.47
2018-06-15T05:13:11.831Z,1019.51
2018-06-15T05:14:11.750Z,1019.5
2018-06-15T05:15:11.587Z,1019.51
2018-06-15T05:16:11.738Z,1019.52
2018-06-15T05:17:12.052Z,1019.48
2018-06-15T05:18:11.647Z,1019.54
2018-06-15T05:19:11.684Z,1019.52
2018-06-15T05:20:11.861Z,1019.55
2018-06-15T05:21:11.639Z,1019.49
2018-06-15T05:22:11.723Z,1019.48
2018-06-15T05:23:11.639Z,1019.52
2018-06-15T05:24:11.661Z,1019.52
2018-06-15T05:25:11.690Z,1019.54
2018-06-15T05:26:11.677Z,1019.53
2018-06-15T05:27:11.676Z,1019.57
2018-06-15T05:28:11.831Z,1019.55
2018-06-15T05:29:11.742Z,1019.59
2018-06-15T05:30:11.904Z,1019.57
2018-06-15T05:31:11.782Z,1019.58
2018-06-15T05:32:11.840Z,1019.54
2018-06-15T05:33:11.527Z,1019.58
2018-06-15T05:34:11.824Z,1019.6
2018-06-15T05:35:11.974Z,1019.58
2018-06-15T05:36:11.529Z,1019.59
2018-06-15T05:37:11.502Z,1019.55
2018-06-15T05:38:11.530Z,1019.57
2018-06-15T05:39:11.763Z,1019.59
2018-06-15T05:40:11.607Z,1019.59
2018-06-15T05:41:11.772Z,1019.62
2018-06-15T05:42:11.627Z,1019.61
2018-06-15T05:43:11.568Z,1019.63
2018-06-15T05:44:11.580Z,1019.65
2018-06-15T05:45:11.628Z,1019.62
2018-06-15T05:46:11.616Z,1019.65
2018-06-15T05:47:11.560Z,1019.64
2018-06-15T05:48:11.697Z,1019.67
2018-06-15T05:49:11.685Z,1019.6
2018-06-15T05:50:11.712Z,1019.62
2018-06-15T05:51:11.646Z,1019.62
2018-06-15T05:52:11.697Z,1019.65
2018-06-15T05:53:11.603Z,1019.61
2018-06-15T05:54:11.871Z,1019.62
2018-06-15T05:55:11.708Z,1019.61
2018-06-15T05:56:11.726Z,1019.64
2018-06-15T05:57:11.773Z,1019.62
2018-06-15T05:58:11.577Z,1019.59
2018-06-15T05:59:11.943Z,1019.61
2018-06-15T06:00:11.715Z,1019.63
2018-06-15T06:01:11.624Z,1019.66
2018-06-15T06:02:11.509Z,1019.7
2018-06-15T06:03:11.596Z,1019.65
2018-06-15T06:04:12.246Z,1019.69
2018-06-15T06:05:11.794Z,1019.73
2018-06-15T06:06:11.795Z,1019.76
2018-06-15T06:07:11.567Z,1019.8
2018-06-15T06:08:11.705Z,1019.78
2018-06-15T06:09:11.746Z,1019.79
2018-06-15T06:10:11.749Z,1019.79
2018-06-15T06:11:11.825Z,1019.81
2018-06-15T06:12:11.600Z,1019.8
2018-06-15T06:13:11.653Z,1019.81
2018-06-15T06:14:11.711Z,1019.8
2018-06-15T06:15:11.679Z,1019.79
2018-06-15T06:16:11.583Z,1019.79
2018-06-15T06:17:11.661Z,1019.86
2018-06-15T06:18:11.756Z,1019.84
2018-06-15T06:19:11.574Z,1019.85
2018-06-15T06:20:11.794Z,1019.83
2018-06-15T06:21:11.685Z,1019.84
2018-06-15T06:22:11.762Z,1019.89
2018-06-15T06:23:11.673Z,1019.87
2018-06-15T06:24:11.673Z,1019.87
2018-06-15T06:25:11.599Z,1019.89
2018-06-15T06:26:11.856Z,1019.89
2018-06-15T06:27:11.840Z,1019.88
2018-06-15T06:28:11.908Z,1019.92
2018-06-15T06:29:21.743Z,1019.92
2018-06-15T06:30:12.333Z,1019.96
2018-06-15T06:31:11.751Z,1019.95
2018-06-15T06:32:11.630Z,1019.94
2018-06-15T06:33:11.756Z,1020
2018-06-15T06:34:11.996Z,1019.96
2018-06-15T06:35:11.554Z,1019.98
2018-06-15T06:36:11.750Z,1019.92
2018-06-15T06:37:11.798Z,1020
2018-06-15T06:38:11.683Z,1020
2018-06-15T06:39:11.520Z,1020
2018-06-15T06:40:11.696Z,1019.97
2018-06-15T06:41:11.760Z,1019.97
2018-06-15T06:42:11.928Z,1019.98
2018-06-15T06:43:11.620Z,1020.04
2018-06-15T06:44:11.668Z,1019.99
2018-06-15T06:45:11.549Z,1020.03
2018-06-15T06:46:11.558Z,1020.01
2018-06-15T06:47:11.719Z,1020.03
2018-06-15T06:48:11.744Z,1020.03
2018-06-15T06:49:11.588Z,1020.03
2018-06-15T06:50:11.661Z,1019.99
2018-06-15T06:51:12.055Z,1020.02
2018-06-15T06:52:11.803Z,1020.03
2018-06-15T06:53:11.632Z,1020.03
2018-06-15T06:54:11.579Z,1020.02
2018-06-15T06:55:11.720Z,1020.04
2018-06-15T06:56:11.572Z,1020.05
2018-06-15T06:57:11.597Z,1020.06
2018-06-15T06:58:11.597Z,1020.07
2018-06-15T06:59:11.826Z,1020.05
2018-06-15T07:00:11.688Z,1020.08
2018-06-15T07:01:11.807Z,1020.05
2018-06-15T07:02:11.670Z,1020.07
2018-06-15T07:03:11.888Z,1020.02
2018-06-15T07:04:11.840Z,1020.09
2018-06-15T07:05:11.676Z,1020.1
2018-06-15T07:06:12.103Z,1020.03
2018-06-15T07:07:11.689Z,1020.09
2018-06-15T07:08:11.675Z,1020.08
2018-06-15T07:09:11.686Z,1020.1
2018-06-15T07:10:11.789Z,1020.12
2018-06-15T07:11:11.704Z,1020.11
2018-06-15T07:12:11.518Z,1020.12
2018-06-15T07:13:11.972Z,1020.12
2018-06-15T07:14:11.546Z,1020.14
2018-06-15T07:15:11.776Z,1020.11
2018-06-15T07:16:11.743Z,1020.1
2018-06-15T07:17:11.938Z,1020.09
2018-06-15T07:18:11.572Z,1020.1
2018-06-15T07:19:11.660Z,1020.11
2018-06-15T07:20:11.840Z,1020.13
2018-06-15T07:21:11.503Z,1020.15
2018-06-15T07:22:11.928Z,1020.17
2018-06-15T07:23:11.748Z,1020.17
2018-06-15T07:24:11.806Z,1020.16
2018-06-15T07:25:11.884Z,1020.16
2018-06-15T07:26:11.685Z,1020.17
2018-06-15T07:27:11.725Z,1020.2
2018-06-15T07:28:11.746Z,1020.19
2018-06-15T07:29:11.863Z,1020.18
2018-06-15T07:30:11.693Z,1020.2
2018-06-15T07:31:11.781Z,1020.2
2018-06-15T07:32:11.755Z,1020.22
2018-06-15T07:33:11.895Z,1020.24
2018-06-15T07:34:11.722Z,1020.22
2018-06-15T07:35:11.785Z,1020.17
2018-06-15T07:36:11.517Z,1020.17
2018-06-15T07:37:11.799Z,1020.17
2018-06-15T07:38:11.570Z,1020.17
2018-06-15T07:39:11.617Z,1020.16
2018-06-15T07:40:11.566Z,1020.2
2018-06-15T07:41:11.631Z,1020.22
2018-06-15T07:42:11.670Z,1020.16
2018-06-15T07:43:11.716Z,1020.19
2018-06-15T07:44:11.749Z,1020.15
2018-06-15T07:45:11.654Z,1020.15
2018-06-15T07:46:11.883Z,1020.14
2018-06-15T07:47:11.767Z,1020.16
2018-06-15T07:48:11.540Z,1020.13
2018-06-15T07:49:11.526Z,1020.16
2018-06-15T07:50:11.742Z,1020.19
2018-06-15T07:51:11.602Z,1020.19
2018-06-15T07:52:11.538Z,1020.17
2018-06-15T07:53:11.728Z,1020.18
2018-06-15T07:54:11.771Z,1020.18
2018-06-15T07:55:11.654Z,1020.19
2018-06-15T07:56:11.673Z,1020.16
2018-06-15T07:57:11.395Z,1020.14
2018-06-15T07:58:11.768Z,1020.16
2018-06-15T07:59:11.675Z,1020.16
2018-06-15T08:00:11.780Z,1020.16
2018-06-15T08:01:11.480Z,1020.14
2018-06-15T08:02:11.617Z,1020.17
2018-06-15T08:03:11.697Z,1020.14
2018-06-15T08:04:11.784Z,1020.15
2018-06-15T08:05:11.498Z,1020.15
2018-06-15T08:06:11.468Z,1020.12
2018-06-15T08:07:11.533Z,1020.15
2018-06-15T08:08:11.680Z,1020.08
2018-06-15T08:09:11.566Z,1020.09
2018-06-15T08:10:11.751Z,1020.04
2018-06-15T08:11:11.686Z,1020.09
2018-06-15T08:12:11.518Z,1020.07
2018-06-15T08:13:11.634Z,1020.07
2018-06-15T08:14:11.675Z,1020.05
2018-06-15T08:15:36.501Z,1020.04
2018-06-15T08:16:11.650Z,1020
2018-06-15T08:17:11.614Z,1020.01
2018-06-15T08:18:11.716Z,1020.05
2018-06-15T08:19:11.791Z,1020.02
2018-06-15T08:20:11.684Z,1020.02
2018-06-15T08:21:11.684Z,1020.02
2018-06-15T08:22:11.486Z,1019.96
2018-06-15T08:23:11.607Z,1019.99
2018-06-15T08:24:11.639Z,1020
2018-06-15T08:25:48.526Z,1019.96
2018-06-15T08:26:11.696Z,1019.93
2018-06-15T08:27:11.712Z,1019.99
2018-06-15T08:28:11.728Z,1020.01
2018-06-15T08:29:11.662Z,1019.97
2018-06-15T08:30:11.575Z,1019.97
2018-06-15T08:31:11.707Z,1019.98
2018-06-15T08:32:11.643Z,1019.98
2018-06-15T08:33:11.679Z,1019.96
2018-06-15T08:34:11.635Z,1019.98
2018-06-15T08:35:11.587Z,1019.98
2018-06-15T08:36:11.604Z,1019.98
2018-06-15T08:37:11.826Z,1019.97
2018-06-15T08:38:11.633Z,1019.92
2018-06-15T08:39:11.548Z,1019.96
2018-06-15T08:40:11.650Z,1019.92
2018-06-15T08:41:11.731Z,1019.88
2018-06-15T08:42:11.544Z,1019.89
2018-06-15T08:43:11.647Z,1019.87
2018-06-15T08:44:11.712Z,1019.86
2018-06-15T08:45:11.556Z,1019.89
2018-06-15T08:46:11.629Z,1019.81
2018-06-15T08:47:11.600Z,1019.84
2018-06-15T08:48:21.538Z,1019.85
2018-06-15T08:49:11.744Z,1019.83
2018-06-15T08:50:11.785Z,1019.85
2018-06-15T08:51:11.756Z,1019.82
2018-06-15T08:52:11.729Z,1019.86
2018-06-15T08:53:11.730Z,1019.84
2018-06-15T08:54:11.761Z,1019.8
2018-06-15T08:55:11.791Z,1019.8
2018-06-15T08:56:11.722Z,1019.79
2018-06-15T08:57:11.512Z,1019.78
2018-06-15T08:58:11.654Z,1019.82
2018-06-15T08:59:11.756Z,1019.82
2018-06-15T09:00:11.679Z,1019.79
2018-06-15T09:01:11.586Z,1019.81
2018-06-15T09:02:11.648Z,1019.81
2018-06-15T09:03:11.735Z,1019.78
2018-06-15T09:04:11.561Z,1019.77
2018-06-15T09:05:11.678Z,1019.74
2018-06-15T09:06:11.831Z,1019.77
2018-06-15T09:07:11.529Z,1019.75
2018-06-15T09:08:11.731Z,1019.73
2018-06-15T09:09:11.798Z,1019.7
2018-06-15T09:10:11.625Z,1019.7
2018-06-15T09:11:11.738Z,1019.67
2018-06-15T09:12:11.623Z,1019.69
2018-06-15T09:13:11.539Z,1019.7
2018-06-15T09:14:11.582Z,1019.68
2018-06-15T09:15:11.600Z,1019.7
2018-06-15T09:16:11.685Z,1019.7
2018-06-15T09:17:11.626Z,1019.68
2018-06-15T09:18:11.883Z,1019.7
2018-06-15T09:19:11.796Z,1019.69
2018-06-15T09:20:11.755Z,1019.71
2018-06-15T09:21:11.764Z,1019.67
2018-06-15T09:22:11.558Z,1019.69
2018-06-15T09:23:11.655Z,1019.71
2018-06-15T09:24:11.681Z,1019.72
2018-06-15T09:25:11.693Z,1019.67
2018-06-15T09:26:11.540Z,1019.7
2018-06-15T09:27:11.603Z,1019.68
2018-06-15T09:28:11.773Z,1019.7
2018-06-15T09:29:11.715Z,1019.71
2018-06-15T09:30:11.564Z,1019.72
2018-06-15T09:31:11.606Z,1019.69
2018-06-15T09:32:11.564Z,1019.71
2018-06-15T09:33:11.728Z,1019.66
2018-06-15T09:34:11.558Z,1019.71
2018-06-15T09:35:11.629Z,1019.69
2018-06-15T09:36:11.668Z,1019.69
2018-06-15T09:37:11.621Z,1019.72
2018-06-15T09:38:11.702Z,1019.71
2018-06-15T09:39:11.542Z,1019.7
2018-06-15T09:40:11.641Z,1019.72
2018-06-15T09:41:11.627Z,1019.71
2018-06-15T09:42:11.741Z,1019.72
2018-06-15T09:43:11.997Z,1019.69
2018-06-15T09:44:11.726Z,1019.73
2018-06-15T09:45:11.702Z,1019.72
2018-06-15T09:46:11.822Z,1019.76
2018-06-15T09:47:11.503Z,1019.74
2018-06-15T09:48:11.756Z,1019.75
2018-06-15T09:49:11.574Z,1019.74
2018-06-15T09:50:11.775Z,1019.71
2018-06-15T09:51:11.708Z,1019.7
2018-06-15T09:52:11.893Z,1019.68
2018-06-15T09:53:11.727Z,1019.66
2018-06-15T09:54:11.642Z,1019.69
2018-06-15T09:55:11.872Z,1019.66
2018-06-15T09:56:11.707Z,1019.65
2018-06-15T09:57:11.674Z,1019.68
2018-06-15T09:58:11.485Z,1019.64
2018-06-15T09:59:11.638Z,1019.64
2018-06-15T10:00:11.789Z,1019.62
2018-06-15T10:01:11.693Z,1019.65
2018-06-15T10:02:11.636Z,1019.68
2018-06-15T10:03:11.559Z,1019.68
2018-06-15T10:04:11.916Z,1019.71
2018-06-15T10:05:11.764Z,1019.71
2018-06-15T10:06:12.047Z,1019.7
2018-06-15T10:07:11.525Z,1019.69
2018-06-15T10:08:11.727Z,1019.68
2018-06-15T10:09:11.759Z,1019.72
2018-06-15T10:10:11.899Z,1019.69
2018-06-15T10:11:11.792Z,1019.72
2018-06-15T10:12:11.798Z,1019.69
2018-06-15T10:13:11.665Z,1019.75
2018-06-15T10:14:11.733Z,1019.71
2018-06-15T10:15:11.725Z,1019.72
2018-06-15T10:16:11.553Z,1019.73
2018-06-15T10:17:11.662Z,1019.73
2018-06-15T10:18:11.747Z,1019.73
2018-06-15T10:19:11.641Z,1019.71
2018-06-15T10:20:11.766Z,1019.71
2018-06-15T10:21:11.504Z,1019.73
2018-06-15T10:22:11.672Z,1019.72
2018-06-15T10:23:11.619Z,1019.75
2018-06-15T10:24:11.523Z,1019.73
2018-06-15T10:25:11.489Z,1019.74
2018-06-15T10:26:11.695Z,1019.73
2018-06-15T10:27:11.763Z,1019.72
2018-06-15T10:28:11.747Z,1019.7
2018-06-15T10:29:11.616Z,1019.71
2018-06-15T10:30:11.611Z,1019.74
2018-06-15T10:31:11.652Z,1019.72
2018-06-15T10:32:11.641Z,1019.74
2018-06-15T10:33:11.483Z,1019.76
2018-06-15T10:34:11.527Z,1019.69
2018-06-15T10:35:11.621Z,1019.74
2018-06-15T10:36:11.643Z,1019.68
2018-06-15T10:37:11.671Z,1019.71
2018-06-15T10:38:11.534Z,1019.72
2018-06-15T10:38:54.291Z,1019.69
2018-06-15T10:39:51.879Z,1019.69
2018-06-15T10:40:52.034Z,1019.68
2018-06-15T10:41:51.486Z,1019.69
2018-06-15T10:42:51.791Z,1019.73
2018-06-15T10:43:51.850Z,1019.69
2018-06-15T10:44:51.761Z,1019.72
2018-06-15T10:45:51.091Z,1019.69
2018-06-15T10:46:50.972Z,1019.71
2018-06-15T10:47:51.107Z,1019.74
2018-06-15T10:48:51.459Z,1019.77
2018-06-15T10:49:51.248Z,1019.7
2018-06-15T10:50:51.385Z,1019.72
2018-06-15T10:51:51.046Z,1019.71
2018-06-15T10:52:32.624Z,1019.69
2018-06-15T10:53:14.676Z,1019.67
2018-06-15T10:54:14.683Z,1019.66
2018-06-15T10:55:14.691Z,1019.63
2018-06-15T10:56:14.691Z,1019.63
2018-06-15T10:57:14.573Z,1019.63
2018-06-15T10:58:14.619Z,1019.65
2018-06-15T10:59:14.609Z,1019.61
2018-06-15T11:00:14.506Z,1019.65
2018-06-15T11:01:14.642Z,1019.63
2018-06-15T11:02:14.504Z,1019.64
2018-06-15T11:03:14.481Z,1019.63
2018-06-15T11:04:14.519Z,1019.6
2018-06-15T11:05:14.601Z,1019.55
2018-06-15T11:05:45.408Z,1019.57
2018-06-15T11:06:45.440Z,1019.58
2018-06-15T11:07:45.298Z,1019.61
2018-06-15T11:08:45.330Z,1019.63
2018-06-15T11:09:45.498Z,1019.58
2018-06-15T11:10:45.405Z,1019.63
2018-06-15T11:11:45.412Z,1019.63
2018-06-15T11:12:58.056Z,1019.62
2018-06-15T11:13:57.948Z,1019.61
2018-06-15T11:14:57.837Z,1019.6
2018-06-15T11:15:57.908Z,1019.6
2018-06-15T11:16:57.881Z,1019.59
2018-06-15T11:17:58.000Z,1019.6
2018-06-15T11:18:57.989Z,1019.56
2018-06-15T11:19:58.082Z,1019.56
2018-06-15T11:20:58.027Z,1019.58
2018-06-15T11:21:57.979Z,1019.6
2018-06-15T11:22:57.963Z,1019.55
2018-06-15T11:23:57.965Z,1019.57
2018-06-15T11:24:57.899Z,1019.55
2018-06-15T11:25:58.040Z,1019.56
2018-06-15T11:26:57.890Z,1019.54
2018-06-15T11:27:58.054Z,1019.52
2018-06-15T11:28:57.973Z,1019.54
2018-06-15T11:29:57.777Z,1019.52
2018-06-15T11:30:58.419Z,1019.55
2018-06-15T11:31:57.947Z,1019.58
2018-06-15T11:32:57.777Z,1019.55
2018-06-15T11:33:57.913Z,1019.53
2018-06-15T11:34:57.875Z,1019.54
2018-06-15T11:35:57.952Z,1019.55
2018-06-15T11:36:57.912Z,1019.54
2018-06-15T11:37:57.958Z,1019.53
2018-06-15T11:38:57.853Z,1019.54
2018-06-15T11:39:58.010Z,1019.53
2018-06-15T11:40:58.179Z,1019.56
2018-06-15T11:41:57.827Z,1019.52
2018-06-15T11:42:57.820Z,1019.53
2018-06-15T11:43:57.903Z,1019.51
2018-06-15T11:44:57.918Z,1019.52
2018-06-15T11:45:57.969Z,1019.54
2018-06-15T11:46:57.977Z,1019.54
2018-06-15T11:47:57.858Z,1019.55
2018-06-15T11:48:57.965Z,1019.58
2018-06-15T11:49:57.942Z,1019.57
2018-06-15T11:50:57.869Z,1019.58
2018-06-15T11:51:58.014Z,1019.57
2018-06-15T11:52:57.949Z,1019.57
2018-06-15T11:53:57.867Z,1019.59
2018-06-15T11:54:57.934Z,1019.55
2018-06-15T11:55:57.777Z,1019.56
2018-06-15T11:56:57.965Z,1019.57
2018-06-15T11:57:57.851Z,1019.57
2018-06-15T11:58:57.817Z,1019.55
2018-06-15T11:59:57.757Z,1019.58
2018-06-15T12:00:57.808Z,1019.58
2018-06-15T12:01:57.955Z,1019.55
2018-06-15T12:02:57.861Z,1019.5
2018-06-15T12:03:58.063Z,1019.52
2018-06-15T12:04:58.221Z,1019.51
2018-06-15T12:05:58.076Z,1019.47
2018-06-15T12:06:58.098Z,1019.47